Time;durP1;ratioP1;P1;durP2;ratioP2;P2;SDS_P1;SDS_P2;PMS_P1;PMS_P2;Temp;Humidity;BMP_temperature;BMP_pressure;BME280_temperature;BME280_humidity;BME280_pressure;Samples;Min_cycle;Max_cycle;Signal;HPM_P1;HPM_P2
2021/11/10 00:02:03;;;;;;;19.17;10.47;;;;;;;;;;5056794;28;20328;-73
2021/11/10 00:04:31;;;;;;;23.33;10.80;;;;;;;;;;5055546;28;20229;-74
2021/11/10 00:06:57;;;;;;;20.63;10.27;;;;;;;;;;5055417;28;20291;-73
2021/11/10 00:09:24;;;;;;;23.07;11.63;;;;;;;;;;5053868;28;20546;-73
2021/11/10 00:11:51;;;;;;;25.07;11.13;;;;;;;;;;5056380;28;20287;-73
2021/11/10 00:14:18;;;;;;;16.27;11.13;;;;;;;;;;5054667;28;20731;-73
2021/11/10 00:16:44;;;;;;;19.77;11.37;;;;;;;;;;5054845;28;20210;-73
2021/11/10 00:19:10;;;;;;;23.77;11.40;;;;;;;;;;5054747;28;20225;-73
2021/11/10 00:21:38;;;;;;;25.53;11.13;;;;;;;;;;5055311;28;20228;-74
2021/11/10 00:24:07;;;;;;;23.10;10.87;;;;;;;;;;5055652;28;20257;-73
2021/11/10 00:26:34;;;;;;;21.10;11.17;;;;;;;;;;5053631;28;20208;-74
2021/11/10 00:29:00;;;;;;;23.00;12.33;;;;;;;;;;5053732;28;20719;-74
2021/11/10 00:31:27;;;;;;;22.20;10.73;;;;;;;;;;5055440;28;20349;-74
2021/11/10 00:33:54;;;;;;;20.77;11.43;;;;;;;;;;5053554;28;20244;-73
2021/11/10 00:36:20;;;;;;;24.37;11.33;;;;;;;;;;5053814;28;20626;-74
2021/11/10 00:38:48;;;;;;;21.23;11.50;;;;;;;;;;5054098;28;20217;-74
2021/11/10 00:41:15;;;;;;;22.63;11.30;;;;;;;;;;5055227;28;20237;-73
2021/11/10 00:43:41;;;;;;;23.37;11.83;;;;;;;;;;5054696;28;20232;-74
2021/11/10 00:46:08;;;;;;;22.23;10.70;;;;;;;;;;5054808;28;20214;-73
2021/11/10 00:48:34;;;;;;;21.00;11.27;;;;;;;;;;5054897;28;20218;-74
2021/11/10 00:51:02;;;;;;;18.33;11.50;;;;;;;;;;5053543;28;20232;-73
2021/11/10 00:53:28;;;;;;;22.70;11.10;;;;;;;;;;5052275;28;20279;-73
2021/11/10 00:55:56;;;;;;;22.23;11.53;;;;;;;;;;5054999;28;20217;-73
2021/11/10 00:58:22;;;;;;;19.17;10.53;;;;;;;;;;5053389;28;20221;-73
2021/11/10 01:00:50;;;;;;;22.47;11.33;;;;;;;;;;5052327;28;20674;-73
2021/11/10 01:03:16;;;;;;;25.27;11.47;;;;;;;;;;5053343;28;20236;-73
2021/11/10 01:05:43;;;;;;;23.27;11.37;;;;;;;;;;5052728;28;20228;-73
2021/11/10 01:08:10;;;;;;;19.50;11.37;;;;;;;;;;5052873;28;20224;-73
2021/11/10 01:10:37;;;;;;;22.43;11.00;;;;;;;;;;5053986;28;20221;-73
2021/11/10 01:13:06;;;;;;;25.50;10.70;;;;;;;;;;5054644;28;20257;-73
2021/11/10 01:15:34;;;;;;;21.93;11.30;;;;;;;;;;5053165;28;20232;-73
2021/11/10 01:18:00;;;;;;;18.13;11.27;;;;;;;;;;5054924;28;20209;-74
2021/11/10 01:20:26;;;;;;;19.93;10.67;;;;;;;;;;5051985;28;20235;-74
2021/11/10 01:22:53;;;;;;;19.53;11.50;;;;;;;;;;5052871;28;20283;-73
2021/11/10 01:25:19;;;;;;;23.23;12.30;;;;;;;;;;5055676;28;20654;-73
2021/11/10 01:27:46;;;;;;;20.13;11.67;;;;;;;;;;5055141;28;20274;-73
2021/11/10 01:30:14;;;;;;;23.10;11.17;;;;;;;;;;5053907;28;20293;-73
2021/11/10 01:32:41;;;;;;;22.37;12.03;;;;;;;;;;5053550;28;20909;-73
2021/11/10 01:35:08;;;;;;;24.63;11.70;;;;;;;;;;5054266;28;20212;-73
2021/11/10 01:37:35;;;;;;;21.93;12.23;;;;;;;;;;5054537;28;20225;-73
2021/11/10 01:40:01;;;;;;;21.43;11.47;;;;;;;;;;5052932;28;20209;-73
2021/11/10 01:42:30;;;;;;;18.80;10.93;;;;;;;;;;5053469;28;20243;-73
2021/11/10 01:44:57;;;;;;;21.97;10.97;;;;;;;;;;5054187;28;20631;-73
2021/11/10 01:47:25;;;;;;;20.57;11.20;;;;;;;;;;5054376;28;20828;-73
2021/11/10 01:49:52;;;;;;;21.90;10.60;;;;;;;;;;5054644;28;20220;-73
2021/11/10 01:52:18;;;;;;;22.17;11.67;;;;;;;;;;5052646;28;20851;-73
2021/11/10 01:54:45;;;;;;;19.00;11.10;;;;;;;;;;5054682;28;20244;-73
2021/11/10 01:57:13;;;;;;;19.77;11.27;;;;;;;;;;5054509;28;20217;-73
2021/11/10 01:59:42;;;;;;;25.37;12.83;;;;;;;;;;5053371;28;20221;-73
2021/11/10 02:02:10;;;;;;;20.83;11.33;;;;;;;;;;5052323;28;20229;-73
2021/11/10 02:04:40;;;;;;;21.67;12.37;;;;;;;;;;5054497;28;20517;-73
2021/11/10 02:07:07;;;;;;;21.17;11.97;;;;;;;;;;5052935;28;20224;-73
2021/11/10 02:09:34;;;;;;;21.77;11.77;;;;;;;;;;5053893;28;20217;-73
2021/11/10 02:12:01;;;;;;;20.53;11.93;;;;;;;;;;5057642;28;20688;-73
2021/11/10 02:14:28;;;;;;;23.13;12.37;;;;;;;;;;5058002;28;20229;-73
2021/11/10 02:16:56;;;;;;;19.00;11.80;;;;;;;;;;5058557;28;20224;-73
2021/11/10 02:19:24;;;;;;;19.27;11.03;;;;;;;;;;5058712;28;20267;-73
2021/11/10 02:21:54;;;;;;;21.67;11.40;;;;;;;;;;5056901;28;20229;-73
2021/11/10 02:24:23;;;;;;;17.80;11.93;;;;;;;;;;5057677;28;20209;-73
2021/11/10 02:26:50;;;;;;;24.10;12.70;;;;;;;;;;5056084;28;20304;-73
2021/11/10 02:29:19;;;;;;;22.87;11.87;;;;;;;;;;5056353;28;20236;-73
2021/11/10 02:31:46;;;;;;;23.10;11.47;;;;;;;;;;5057318;28;20214;-73
2021/11/10 02:34:13;;;;;;;21.83;13.03;;;;;;;;;;5056826;28;20252;-73
2021/11/10 02:36:39;;;;;;;18.90;11.93;;;;;;;;;;5055531;28;20228;-73
2021/11/10 02:39:09;;;;;;;20.80;11.77;;;;;;;;;;5055760;28;20983;-73
2021/11/10 02:41:37;;;;;;;22.63;11.97;;;;;;;;;;5057440;28;20237;-73
2021/11/10 02:44:05;;;;;;;24.50;12.30;;;;;;;;;;5057070;28;20232;-73
2021/11/10 02:46:32;;;;;;;20.70;11.90;;;;;;;;;;5054990;28;20217;-73
2021/11/10 02:48:59;;;;;;;28.37;12.33;;;;;;;;;;5056598;28;20217;-73
2021/11/10 02:51:25;;;;;;;25.23;13.47;;;;;;;;;;5055641;28;20236;-73
2021/11/10 02:53:52;;;;;;;22.77;12.53;;;;;;;;;;5056728;28;20568;-73
2021/11/10 02:56:19;;;;;;;23.93;11.03;;;;;;;;;;5055389;28;20263;-73
2021/11/10 02:58:46;;;;;;;23.53;12.63;;;;;;;;;;5057377;28;20233;-73
2021/11/10 03:01:12;;;;;;;23.17;12.67;;;;;;;;;;5054699;28;20233;-73
2021/11/10 03:03:39;;;;;;;19.60;12.23;;;;;;;;;;5055424;28;20745;-73
2021/11/10 03:06:05;;;;;;;19.70;12.07;;;;;;;;;;5056818;28;20238;-73
2021/11/10 03:08:32;;;;;;;18.40;12.27;;;;;;;;;;5056054;28;20259;-73
2021/11/10 03:10:58;;;;;;;22.10;11.67;;;;;;;;;;5056889;28;20261;-73
2021/11/10 03:13:26;;;;;;;20.83;12.23;;;;;;;;;;5056924;28;20218;-73
2021/11/10 03:15:52;;;;;;;24.40;13.50;;;;;;;;;;5056529;28;20270;-73
2021/11/10 03:18:19;;;;;;;21.03;12.90;;;;;;;;;;5056705;28;20216;-73
2021/11/10 03:20:46;;;;;;;20.93;12.53;;;;;;;;;;5056383;28;20209;-73
2021/11/10 03:23:12;;;;;;;21.60;12.73;;;;;;;;;;5055920;28;20233;-73
2021/11/10 03:25:39;;;;;;;23.73;13.40;;;;;;;;;;5055814;28;20212;-73
2021/11/10 03:28:05;;;;;;;19.03;11.27;;;;;;;;;;5055094;28;20227;-73
2021/11/10 03:30:33;;;;;;;21.30;12.87;;;;;;;;;;5056613;28;20287;-74
2021/11/10 03:32:59;;;;;;;24.70;12.67;;;;;;;;;;5057148;28;20235;-73
2021/11/10 03:35:26;;;;;;;22.67;13.03;;;;;;;;;;5056575;28;20265;-73
2021/11/10 03:37:53;;;;;;;21.70;11.83;;;;;;;;;;5053696;28;20671;-73
2021/11/10 03:40:19;;;;;;;18.20;11.40;;;;;;;;;;5056406;28;20621;-73
2021/11/10 03:42:45;;;;;;;22.90;12.67;;;;;;;;;;5055358;28;20240;-74
2021/11/10 03:45:12;;;;;;;19.77;12.57;;;;;;;;;;5055921;28;21323;-73
2021/11/10 03:47:40;;;;;;;24.27;12.73;;;;;;;;;;5055835;28;20213;-73
2021/11/10 03:50:07;;;;;;;18.97;12.13;;;;;;;;;;5056445;28;20252;-74
2021/11/10 03:52:33;;;;;;;20.70;12.90;;;;;;;;;;5056149;28;20228;-73
2021/11/10 03:55:00;;;;;;;26.90;13.00;;;;;;;;;;5055182;28;20213;-73
2021/11/10 03:57:26;;;;;;;24.23;12.53;;;;;;;;;;5057198;28;20208;-73
2021/11/10 03:59:53;;;;;;;23.07;12.80;;;;;;;;;;5056980;28;20237;-73
2021/11/10 04:02:19;;;;;;;18.83;11.97;;;;;;;;;;5055505;28;20263;-73
2021/11/10 04:04:47;;;;;;;20.00;11.63;;;;;;;;;;5055229;28;20282;-74
2021/11/10 04:07:13;;;;;;;23.43;13.00;;;;;;;;;;5053898;28;20889;-73
2021/11/10 04:09:40;;;;;;;23.60;13.43;;;;;;;;;;5052970;28;20217;-73
2021/11/10 04:12:07;;;;;;;20.30;12.70;;;;;;;;;;5054354;28;20244;-74
2021/11/10 04:14:33;;;;;;;24.13;13.60;;;;;;;;;;5054636;28;20278;-73
2021/11/10 04:17:00;;;;;;;20.47;13.20;;;;;;;;;;5054739;28;20212;-73
2021/11/10 04:19:26;;;;;;;17.97;12.47;;;;;;;;;;5053950;28;20216;-73
2021/11/10 04:21:54;;;;;;;24.60;12.70;;;;;;;;;;5055103;28;20357;-73
2021/11/10 04:24:20;;;;;;;19.60;12.90;;;;;;;;;;5052045;28;20253;-73
2021/11/10 04:26:47;;;;;;;19.70;12.70;;;;;;;;;;5055647;28;20267;-73
2021/11/10 04:29:13;;;;;;;26.63;14.50;;;;;;;;;;5054953;28;20282;-73
2021/11/10 04:31:40;;;;;;;25.33;13.40;;;;;;;;;;5054991;28;20287;-73
2021/11/10 04:34:07;;;;;;;20.03;12.70;;;;;;;;;;5053246;28;20248;-73
2021/11/10 04:36:33;;;;;;;21.83;13.57;;;;;;;;;;5054892;28;20278;-73
2021/11/10 04:39:01;;;;;;;23.53;12.60;;;;;;;;;;5054727;28;20232;-73
2021/11/10 04:41:28;;;;;;;19.30;12.37;;;;;;;;;;5054580;28;20236;-73
2021/11/10 04:43:54;;;;;;;23.00;13.80;;;;;;;;;;5056308;28;20686;-73
2021/11/10 04:46:25;;;;;;;22.97;14.37;;;;;;;;;;5055492;28;20212;-73
2021/11/10 04:48:52;;;;;;;25.60;13.37;;;;;;;;;;5054190;28;20300;-73
2021/11/10 04:51:20;;;;;;;20.80;13.13;;;;;;;;;;5054044;28;20852;-73
2021/11/10 04:53:48;;;;;;;24.00;13.17;;;;;;;;;;5053870;28;20222;-74
2021/11/10 04:56:16;;;;;;;25.00;12.20;;;;;;;;;;5055710;28;20209;-73
2021/11/10 04:58:43;;;;;;;24.97;14.10;;;;;;;;;;5054749;28;20230;-73
2021/11/10 05:01:15;;;;;;;24.50;13.70;;;;;;;;;;5054674;28;20212;-73
2021/11/10 05:03:41;;;;;;;23.43;14.13;;;;;;;;;;5053405;28;20234;-75
2021/11/10 05:06:08;;;;;;;20.77;12.90;;;;;;;;;;5055423;28;20237;-73
2021/11/10 05:08:35;;;;;;;22.17;13.30;;;;;;;;;;5054838;28;20314;-73
2021/11/10 05:11:02;;;;;;;21.07;12.77;;;;;;;;;;5055635;28;20208;-73
2021/11/10 05:13:29;;;;;;;21.27;12.93;;;;;;;;;;5056309;28;20234;-73
2021/11/10 05:15:56;;;;;;;19.67;12.60;;;;;;;;;;5051740;28;20204;-73
2021/11/10 05:18:22;;;;;;;21.27;11.70;;;;;;;;;;5053751;28;20208;-73
2021/11/10 05:20:49;;;;;;;20.33;12.23;;;;;;;;;;5055322;28;20348;-73
2021/11/10 05:23:16;;;;;;;20.90;11.83;;;;;;;;;;5052138;28;20232;-73
2021/11/10 05:25:43;;;;;;;23.43;13.07;;;;;;;;;;5053844;28;20238;-73
2021/11/10 05:28:09;;;;;;;21.47;12.10;;;;;;;;;;5052924;28;20212;-73
2021/11/10 05:30:38;;;;;;;20.52;12.32;;;;;;;;;;5053811;28;20435;-76
2021/11/10 05:33:05;;;;;;;21.33;12.40;;;;;;;;;;5053182;28;20247;-77
2021/11/10 05:35:32;;;;;;;19.30;11.90;;;;;;;;;;5054180;28;20235;-76
2021/11/10 05:37:58;;;;;;;21.93;12.37;;;;;;;;;;5054870;28;20232;-76
2021/11/10 05:40:25;;;;;;;19.40;12.03;;;;;;;;;;5053037;28;20212;-76
2021/11/10 05:42:51;;;;;;;20.13;12.03;;;;;;;;;;5053016;28;20242;-76
2021/11/10 05:45:18;;;;;;;23.73;13.37;;;;;;;;;;5053427;28;20561;-76
2021/11/10 05:47:46;;;;;;;23.90;12.83;;;;;;;;;;5053317;28;20215;-76
2021/11/10 05:50:13;;;;;;;17.60;12.17;;;;;;;;;;5054238;28;20508;-76
2021/11/10 05:52:41;;;;;;;24.13;12.13;;;;;;;;;;5054149;28;20496;-76
2021/11/10 05:55:08;;;;;;;22.60;13.70;;;;;;;;;;5053771;28;20222;-76
2021/11/10 05:57:38;;;;;;;24.73;11.83;;;;;;;;;;5055159;28;20212;-76
2021/11/10 06:00:06;;;;;;;23.97;14.67;;;;;;;;;;5053396;28;20283;-76
2021/11/10 06:02:32;;;;;;;20.33;12.90;;;;;;;;;;5054300;28;20235;-76
2021/11/10 06:05:00;;;;;;;21.60;12.60;;;;;;;;;;5054071;28;20289;-76
2021/11/10 06:07:27;;;;;;;23.97;13.03;;;;;;;;;;5051576;28;20228;-76
2021/11/10 06:09:53;;;;;;;23.37;13.93;;;;;;;;;;5053348;28;20724;-76
2021/11/10 06:12:19;;;;;;;22.73;13.07;;;;;;;;;;5053458;28;20223;-76
2021/11/10 06:14:46;;;;;;;28.73;14.43;;;;;;;;;;5053240;28;20230;-76
2021/11/10 06:17:12;;;;;;;22.97;13.67;;;;;;;;;;5052695;28;20292;-77
2021/11/10 06:19:38;;;;;;;25.57;13.40;;;;;;;;;;5052559;28;20216;-76
2021/11/10 06:22:06;;;;;;;28.50;14.63;;;;;;;;;;5053235;28;20612;-76
2021/11/10 06:24:33;;;;;;;20.67;13.77;;;;;;;;;;5052354;28;20637;-76
2021/11/10 06:27:00;;;;;;;25.83;14.80;;;;;;;;;;5052724;28;20211;-76
2021/11/10 06:29:26;;;;;;;28.00;15.43;;;;;;;;;;5054140;28;20263;-76
2021/11/10 06:31:53;;;;;;;23.40;13.40;;;;;;;;;;5053893;28;20258;-76
2021/11/10 06:34:19;;;;;;;29.50;14.40;;;;;;;;;;5053923;28;20800;-76
2021/11/10 06:36:46;;;;;;;25.40;14.00;;;;;;;;;;5052822;28;20236;-76
2021/11/10 06:39:14;;;;;;;22.73;13.27;;;;;;;;;;5052790;28;20212;-76
2021/11/10 06:41:41;;;;;;;24.20;13.70;;;;;;;;;;5053476;28;20220;-76
2021/11/10 06:44:08;;;;;;;20.27;12.80;;;;;;;;;;5053073;28;20736;-76
2021/11/10 06:46:34;;;;;;;22.60;13.63;;;;;;;;;;5051981;28;20258;-76
2021/11/10 06:49:00;;;;;;;25.97;13.93;;;;;;;;;;5053041;28;20220;-76
2021/11/10 06:51:27;;;;;;;29.10;13.20;;;;;;;;;;5052467;28;20266;-76
2021/11/10 06:53:53;;;;;;;34.37;13.90;;;;;;;;;;5051487;28;20205;-77
2021/11/10 06:56:21;;;;;;;25.83;13.93;;;;;;;;;;5051001;28;20663;-76
2021/11/10 06:58:49;;;;;;;33.17;14.20;;;;;;;;;;5054561;28;21055;-76
2021/11/10 07:01:16;;;;;;;23.10;13.80;;;;;;;;;;5055341;28;20594;-76
2021/11/10 07:03:42;;;;;;;22.90;13.63;;;;;;;;;;5057389;28;20294;-76
2021/11/10 07:06:09;;;;;;;22.03;12.03;;;;;;;;;;5055770;28;20279;-76
2021/11/10 07:08:35;;;;;;;26.60;12.60;;;;;;;;;;5053410;28;20243;-76
2021/11/10 07:11:02;;;;;;;21.13;12.93;;;;;;;;;;5055070;28;20283;-76
2021/11/10 07:13:29;;;;;;;22.50;12.87;;;;;;;;;;5054815;28;20940;-76
2021/11/10 07:15:57;;;;;;;24.43;12.77;;;;;;;;;;5054387;28;20257;-75
2021/11/10 07:18:23;;;;;;;21.23;11.97;;;;;;;;;;5055132;28;20254;-76
2021/11/10 07:20:49;;;;;;;22.03;13.03;;;;;;;;;;5055930;28;20236;-76
2021/11/10 07:23:16;;;;;;;24.37;12.33;;;;;;;;;;5054682;28;20236;-76
2021/11/10 07:25:42;;;;;;;23.80;12.83;;;;;;;;;;5054740;28;20216;-76
2021/11/10 07:28:09;;;;;;;24.03;11.47;;;;;;;;;;5054760;28;20681;-76
2021/11/10 07:30:38;;;;;;;23.10;12.40;;;;;;;;;;5055532;28;20232;-76
2021/11/10 07:33:04;;;;;;;24.13;13.33;;;;;;;;;;5056505;28;20271;-77
2021/11/10 07:35:31;;;;;;;24.93;12.40;;;;;;;;;;5054382;28;20338;-76
2021/11/10 07:37:57;;;;;;;24.57;12.03;;;;;;;;;;5054135;28;20230;-76
2021/11/10 07:40:25;;;;;;;26.37;11.73;;;;;;;;;;5055586;28;20214;-76
2021/11/10 07:42:52;;;;;;;22.00;12.90;;;;;;;;;;5053519;28;20234;-76
2021/11/10 07:45:20;;;;;;;20.00;12.00;;;;;;;;;;5055897;28;20340;-76
2021/11/10 07:47:51;;;;;;;21.47;12.37;;;;;;;;;;5055660;28;20273;-76
2021/11/10 07:50:21;;;;;;;22.33;11.93;;;;;;;;;;5054934;28;20670;-76
2021/11/10 07:52:48;;;;;;;20.73;11.67;;;;;;;;;;5054603;28;20682;-76
2021/11/10 07:55:15;;;;;;;20.63;12.77;;;;;;;;;;5055295;28;20216;-76
2021/11/10 07:57:42;;;;;;;20.93;12.30;;;;;;;;;;5054831;28;20223;-76
2021/11/10 08:00:12;;;;;;;19.60;12.00;;;;;;;;;;5055159;28;20314;-76
2021/11/10 08:02:39;;;;;;;22.93;12.23;;;;;;;;;;5052695;28;20236;-76
2021/11/10 08:05:08;;;;;;;25.17;12.63;;;;;;;;;;5054556;28;20217;-76
2021/11/10 08:07:35;;;;;;;20.00;11.87;;;;;;;;;;5053707;28;20856;-76
2021/11/10 08:10:02;;;;;;;29.20;11.90;;;;;;;;;;5054696;28;20208;-76
2021/11/10 08:12:31;;;;;;;18.87;12.23;;;;;;;;;;5053697;28;20221;-76
2021/11/10 08:14:57;;;;;;;24.40;12.07;;;;;;;;;;5053556;28;20238;-76
2021/11/10 08:17:24;;;;;;;19.57;11.50;;;;;;;;;;5053650;28;20636;-76
2021/11/10 08:19:50;;;;;;;17.67;11.93;;;;;;;;;;5053448;28;20376;-76
2021/11/10 08:22:18;;;;;;;20.43;12.10;;;;;;;;;;5053696;28;20365;-76
2021/11/10 08:24:47;;;;;;;23.77;13.07;;;;;;;;;;5053529;28;20635;-76
2021/11/10 08:27:14;;;;;;;20.10;12.80;;;;;;;;;;5053723;28;20221;-76
2021/11/10 08:29:40;;;;;;;21.87;12.40;;;;;;;;;;5053683;28;20721;-76
2021/11/10 08:32:07;;;;;;;21.17;11.60;;;;;;;;;;5053388;28;20648;-76
2021/11/10 08:34:34;;;;;;;22.43;12.63;;;;;;;;;;5052131;28;20238;-76
2021/11/10 08:37:01;;;;;;;25.27;13.33;;;;;;;;;;5048083;28;20229;-76
2021/11/10 08:39:28;;;;;;;25.87;12.37;;;;;;;;;;5048170;28;20212;-76
2021/11/10 08:41:55;;;;;;;24.53;12.60;;;;;;;;;;5048272;28;20212;-76
2021/11/10 08:44:21;;;;;;;20.80;12.17;;;;;;;;;;5046175;28;20232;-75
2021/11/10 08:46:48;;;;;;;27.43;12.10;;;;;;;;;;5048595;28;20243;-76
2021/11/10 08:49:14;;;;;;;23.37;12.70;;;;;;;;;;5046730;28;20221;-76
2021/11/10 08:51:41;;;;;;;21.43;12.70;;;;;;;;;;5049040;28;20355;-76
2021/11/10 08:54:08;;;;;;;22.13;13.17;;;;;;;;;;5052401;28;20218;-76
2021/11/10 08:56:36;;;;;;;21.00;12.53;;;;;;;;;;5052709;28;20199;-76
2021/11/10 08:59:03;;;;;;;22.13;13.97;;;;;;;;;;5053271;28;20235;-76
2021/11/10 09:01:29;;;;;;;25.93;13.57;;;;;;;;;;5052607;28;20214;-76
2021/11/10 09:03:56;;;;;;;23.60;13.77;;;;;;;;;;5053362;28;20294;-76
2021/11/10 09:06:23;;;;;;;21.50;12.97;;;;;;;;;;5051982;28;20236;-76
2021/11/10 09:08:49;;;;;;;21.73;12.90;;;;;;;;;;5053301;28;20202;-76
2021/11/10 09:11:16;;;;;;;24.03;13.83;;;;;;;;;;5052710;28;20723;-76
2021/11/10 09:13:44;;;;;;;21.33;11.80;;;;;;;;;;5051526;28;20258;-76
2021/11/10 09:16:11;;;;;;;26.60;12.97;;;;;;;;;;5053476;28;20211;-76
2021/11/10 09:18:38;;;;;;;19.80;12.13;;;;;;;;;;5052192;28;20269;-76
2021/11/10 09:21:05;;;;;;;24.03;11.70;;;;;;;;;;5052999;28;20224;-76
2021/11/10 09:23:33;;;;;;;21.87;11.87;;;;;;;;;;5052646;28;20267;-75
2021/11/10 09:26:00;;;;;;;23.57;12.00;;;;;;;;;;5052976;28;20258;-76
2021/11/10 09:28:27;;;;;;;21.70;12.80;;;;;;;;;;5052824;28;20215;-75
2021/11/10 09:30:55;;;;;;;24.43;12.60;;;;;;;;;;5049954;28;20216;-77
2021/11/10 09:33:23;;;;;;;22.57;11.80;;;;;;;;;;5053838;28;20925;-77
2021/11/10 09:35:51;;;;;;;23.40;12.00;;;;;;;;;;5052876;28;20701;-77
2021/11/10 09:38:19;;;;;;;22.03;12.87;;;;;;;;;;5052116;28;20210;-77
2021/11/10 09:40:45;;;;;;;21.50;12.17;;;;;;;;;;5053630;28;20221;-77
2021/11/10 09:43:15;;;;;;;26.00;12.53;;;;;;;;;;5052911;28;20677;-77
2021/11/10 09:45:42;;;;;;;21.43;12.07;;;;;;;;;;5052921;28;20238;-77
2021/11/10 09:48:10;;;;;;;23.20;12.87;;;;;;;;;;5048087;28;20218;-77
2021/11/10 09:50:42;;;;;;;23.53;12.47;;;;;;;;;;5054244;28;20204;-77
2021/11/10 09:53:08;;;;;;;19.43;11.57;;;;;;;;;;5050923;28;20702;-77
2021/11/10 09:55:35;;;;;;;20.10;13.03;;;;;;;;;;5051466;28;20292;-77
2021/11/10 09:58:02;;;;;;;19.43;11.43;;;;;;;;;;5051711;28;20220;-77
2021/11/10 10:00:35;;;;;;;24.63;12.20;;;;;;;;;;5050847;28;20228;-77
2021/11/10 10:03:03;;;;;;;26.03;13.57;;;;;;;;;;5053836;28;20227;-77
2021/11/10 10:05:32;;;;;;;20.73;13.67;;;;;;;;;;5051687;28;20840;-77
2021/11/10 10:08:01;;;;;;;20.53;12.90;;;;;;;;;;5052072;28;20289;-77
2021/11/10 10:10:28;;;;;;;21.40;12.83;;;;;;;;;;5052527;28;20212;-77
2021/11/10 10:12:56;;;;;;;20.03;13.30;;;;;;;;;;5051296;28;20265;-77
2021/11/10 10:15:25;;;;;;;24.03;13.33;;;;;;;;;;5051978;28;20303;-77
2021/11/10 10:17:57;;;;;;;22.30;12.47;;;;;;;;;;5051818;28;20308;-77
2021/11/10 10:20:26;;;;;;;25.70;14.40;;;;;;;;;;5051165;28;20222;-77
2021/11/10 10:22:55;;;;;;;23.97;13.27;;;;;;;;;;5051598;28;20310;-77
2021/11/10 10:25:23;;;;;;;22.43;13.40;;;;;;;;;;5053795;28;20211;-77
2021/11/10 10:27:55;;;;;;;23.23;13.90;;;;;;;;;;5052707;28;20684;-77
2021/11/10 10:30:25;;;;;;;24.07;13.77;;;;;;;;;;5051550;28;20286;-77
2021/11/10 10:32:54;;;;;;;26.90;13.60;;;;;;;;;;5051464;28;20355;-77
2021/11/10 10:35:34;;;;;;;26.53;14.60;;;;;;;;;;5056130;28;20301;-78
2021/11/10 10:38:05;;;;;;;24.63;13.73;;;;;;;;;;5057005;28;20231;-77
2021/11/10 10:40:32;;;;;;;23.40;14.97;;;;;;;;;;5056095;28;20295;-77
2021/11/10 10:43:00;;;;;;;24.30;14.93;;;;;;;;;;5056231;28;20256;-77
2021/11/10 10:45:32;;;;;;;24.50;13.93;;;;;;;;;;5056904;28;20748;-78
2021/11/10 10:48:01;;;;;;;23.73;13.97;;;;;;;;;;5054623;28;20200;-77
2021/11/10 10:50:31;;;;;;;24.47;14.43;;;;;;;;;;5054609;28;20241;-77
2021/11/10 10:52:58;;;;;;;29.40;15.37;;;;;;;;;;5055942;28;20228;-78
2021/11/10 10:55:37;;;;;;;24.20;14.03;;;;;;;;;;5056625;28;20225;-77
2021/11/10 10:58:08;;;;;;;23.70;15.17;;;;;;;;;;5055036;28;20212;-78
2021/11/10 11:00:35;;;;;;;26.90;15.17;;;;;;;;;;5056414;28;20742;-76
2021/11/10 11:03:23;;;;;;;27.73;14.67;;;;;;;;;;5056547;28;20259;-76
2021/11/10 11:05:50;;;;;;;26.10;15.07;;;;;;;;;;5053484;28;20409;-76
2021/11/10 11:08:30;;;;;;;28.40;15.33;;;;;;;;;;5055152;28;20217;-76
2021/11/10 11:11:01;;;;;;;24.10;15.30;;;;;;;;;;5056001;28;20216;-76
2021/11/10 11:13:43;;;;;;;32.67;15.50;;;;;;;;;;5054319;28;20209;-76
2021/11/10 11:16:10;;;;;;;25.47;14.77;;;;;;;;;;5054517;28;20584;-77
2021/11/10 11:18:37;;;;;;;25.67;15.00;;;;;;;;;;5055065;28;20372;-76
2021/11/10 11:21:20;;;;;;;24.83;14.63;;;;;;;;;;5060118;28;20222;-78
2021/11/10 11:23:49;;;;;;;27.17;14.50;;;;;;;;;;5056954;28;20237;-78
2021/11/10 11:26:38;;;;;;;21.57;13.77;;;;;;;;;;5058905;28;20214;-78
2021/11/10 11:29:22;;;;;;;25.73;14.03;;;;;;;;;;5059183;28;20756;-78
2021/11/10 11:31:48;;;;;;;23.83;14.00;;;;;;;;;;5060644;28;20216;-78
2021/11/10 11:34:16;;;;;;;30.27;13.43;;;;;;;;;;5053999;28;20248;-78
2021/11/10 11:36:53;;;;;;;24.73;13.67;;;;;;;;;;5050344;28;20348;-76
2021/11/10 11:39:21;;;;;;;23.00;13.23;;;;;;;;;;5049967;28;20217;-78
2021/11/10 11:41:49;;;;;;;27.93;14.30;;;;;;;;;;5049477;28;20201;-77
2021/11/10 11:44:17;;;;;;;21.57;14.00;;;;;;;;;;5048396;28;20573;-77
2021/11/10 11:46:44;;;;;;;25.03;14.57;;;;;;;;;;5050059;28;20420;-77
2021/11/10 11:49:12;;;;;;;26.83;14.67;;;;;;;;;;5050828;28;20931;-77
2021/11/10 11:51:39;;;;;;;25.00;14.47;;;;;;;;;;5050782;28;20229;-77
2021/11/10 11:54:08;;;;;;;23.93;15.00;;;;;;;;;;5049897;28;20210;-77
2021/11/10 11:56:35;;;;;;;26.47;14.27;;;;;;;;;;5049800;28;20213;-77
2021/11/10 11:59:04;;;;;;;25.00;14.23;;;;;;;;;;5050533;28;20757;-77
2021/11/10 12:01:32;;;;;;;22.10;15.03;;;;;;;;;;5049968;28;20590;-77
2021/11/10 12:04:04;;;;;;;22.70;13.23;;;;;;;;;;5051307;28;20319;-76
2021/11/10 12:06:32;;;;;;;20.60;13.33;;;;;;;;;;5050118;28;20259;-77
2021/11/10 12:08:59;;;;;;;24.70;14.83;;;;;;;;;;5047260;28;20651;-77
2021/11/10 12:11:32;;;;;;;25.73;14.37;;;;;;;;;;5050585;28;20206;-77
2021/11/10 12:14:11;;;;;;;21.37;13.67;;;;;;;;;;5049669;28;20230;-77
2021/11/10 12:16:49;;;;;;;20.20;12.53;;;;;;;;;;5049972;28;20210;-77
2021/11/10 12:19:22;;;;;;;24.17;13.50;;;;;;;;;;5048847;28;20205;-77
2021/11/10 12:21:51;;;;;;;24.10;14.23;;;;;;;;;;5050038;28;20271;-77
2021/11/10 12:24:23;;;;;;;23.47;13.90;;;;;;;;;;5048021;28;20280;-76
2021/11/10 12:27:20;;;;;;;23.70;14.27;;;;;;;;;;5049020;28;21071;-76
2021/11/10 12:30:00;;;;;;;29.10;14.03;;;;;;;;;;5046987;28;20232;-77
2021/11/10 12:32:44;;;;;;;28.30;15.43;;;;;;;;;;5048709;28;20318;-76
2021/11/10 12:35:21;;;;;;;26.03;14.13;;;;;;;;;;5046499;28;20311;-77
2021/11/10 12:37:50;;;;;;;28.10;15.30;;;;;;;;;;5046889;28;20299;-76
2021/11/10 12:40:18;;;;;;;29.87;14.97;;;;;;;;;;5048625;28;20213;-76
2021/11/10 12:42:54;;;;;;;26.33;15.83;;;;;;;;;;5046147;28;20213;-77
2021/11/10 12:45:27;;;;;;;29.00;15.47;;;;;;;;;;5047610;28;20341;-77
2021/11/10 12:47:55;;;;;;;25.17;14.40;;;;;;;;;;5049330;28;20244;-77
2021/11/10 12:50:35;;;;;;;28.40;14.63;;;;;;;;;;5047937;28;20224;-76
2021/11/10 12:53:04;;;;;;;29.40;15.10;;;;;;;;;;5049318;28;20280;-76
2021/11/10 12:55:33;;;;;;;28.93;16.43;;;;;;;;;;5047948;28;20302;-77
2021/11/10 12:58:02;;;;;;;25.47;14.83;;;;;;;;;;5050902;28;20236;-77
2021/11/10 13:00:32;;;;;;;25.53;14.17;;;;;;;;;;5046663;28;20321;-77
2021/11/10 13:03:00;;;;;;;31.10;15.17;;;;;;;;;;5050725;28;20233;-76
2021/11/10 13:05:29;;;;;;;31.97;14.47;;;;;;;;;;5047958;28;20232;-76
2021/11/10 13:08:04;;;;;;;27.63;14.80;;;;;;;;;;5048432;28;20286;-76
2021/11/10 13:10:33;;;;;;;29.90;15.07;;;;;;;;;;5049144;28;20722;-76
2021/11/10 13:13:08;;;;;;;25.93;14.57;;;;;;;;;;5047873;28;20245;-76
2021/11/10 13:15:36;;;;;;;28.70;14.13;;;;;;;;;;5048053;28;20267;-76
2021/11/10 13:18:12;;;;;;;26.67;13.60;;;;;;;;;;5047500;28;20312;-77
2021/11/10 13:20:39;;;;;;;29.77;16.47;;;;;;;;;;5054442;28;20243;-76
2021/11/10 13:23:05;;;;;;;30.17;15.60;;;;;;;;;;5053231;28;20618;-76
2021/11/10 13:25:34;;;;;;;27.17;15.40;;;;;;;;;;5053532;28;20240;-76
2021/11/10 13:28:04;;;;;;;25.57;14.73;;;;;;;;;;5051990;28;20325;-76
2021/11/10 13:30:33;;;;;;;29.70;15.63;;;;;;;;;;5054445;28;20900;-76
2021/11/10 13:33:17;;;;;;;27.93;16.43;;;;;;;;;;5053111;28;20634;-77
2021/11/10 13:35:44;;;;;;;29.37;15.53;;;;;;;;;;5053912;28;20280;-76
2021/11/10 13:38:11;;;;;;;27.20;15.90;;;;;;;;;;5053461;28;20286;-76
2021/11/10 13:40:38;;;;;;;30.07;15.80;;;;;;;;;;5052673;28;20216;-76
2021/11/10 13:43:05;;;;;;;34.17;17.00;;;;;;;;;;5051448;28;20295;-76
2021/11/10 13:45:33;;;;;;;25.87;15.43;;;;;;;;;;5052892;28;20602;-76
2021/11/10 13:48:02;;;;;;;29.07;16.37;;;;;;;;;;5052283;28;20301;-76
2021/11/10 13:50:31;;;;;;;30.27;16.93;;;;;;;;;;5053575;28;21102;-76
2021/11/10 13:53:02;;;;;;;30.47;17.33;;;;;;;;;;5052796;28;20223;-76
2021/11/10 13:55:29;;;;;;;35.27;17.77;;;;;;;;;;5052773;28;20260;-76
2021/11/10 13:57:58;;;;;;;33.90;17.77;;;;;;;;;;5052484;28;20210;-76
2021/11/10 14:00:25;;;;;;;29.83;17.07;;;;;;;;;;5052050;28;20898;-76
2021/11/10 14:02:53;;;;;;;33.10;16.83;;;;;;;;;;5053119;28;20222;-75
2021/11/10 14:05:24;;;;;;;35.70;19.30;;;;;;;;;;5050364;28;20323;-76
2021/11/10 14:07:51;;;;;;;31.00;17.23;;;;;;;;;;5055630;28;24647;-76
2021/11/10 14:10:20;;;;;;;35.07;17.47;;;;;;;;;;5056591;28;21109;-76
2021/11/10 14:12:49;;;;;;;32.37;16.63;;;;;;;;;;5057640;28;20221;-76
2021/11/10 14:15:18;;;;;;;36.43;19.27;;;;;;;;;;5057446;28;20232;-78
2021/11/10 14:17:49;;;;;;;34.00;18.97;;;;;;;;;;5060724;28;20219;-78
2021/11/10 14:20:26;;;;;;;32.73;17.63;;;;;;;;;;5060468;28;20256;-78
2021/11/10 14:23:02;;;;;;;36.57;17.60;;;;;;;;;;5061582;28;20221;-78